Time;durP1;ratioP1;P1;durP2;ratioP2;P2;SDS_P1;SDS_P2;PMS_P1;PMS_P2;Temp;Humidity;BMP_temperature;BMP_pressure;BME280_temperature;BME280_humidity;BME280_pressure;Samples;Min_cycle;Max_cycle;Signal;HPM_P1;HPM_P2
2023/08/23 00:01:13;;;;;;;;;;;;;;;31.06;46.70;100825.53;6152568;23;19916;-85
2023/08/23 00:04:05;;;;;;;;;;;;;;;30.97;46.88;100827.00;6173708;23;19912;-85
2023/08/23 00:06:57;;;;;;;;;;;;;;;30.97;46.94;100823.41;6193798;23;19916;-84
2023/08/23 00:09:53;;;;;;;;;;;;;;;30.98;46.67;100825.72;6172765;23;19916;-85
2023/08/23 00:12:45;;;;;;;;;;;;;;;30.96;46.60;100816.19;6152363;23;19916;-84
2023/08/23 00:15:34;;;;;;;;;;;;;;;30.89;46.75;100817.22;6171571;23;19912;-84
2023/08/23 00:18:21;;;;;;;;;;;;;;;30.85;46.83;100815.78;6151597;23;19920;-85
2023/08/23 00:21:13;;;;;;;;;;;;;;;30.82;46.70;100811.84;6152355;23;20403;-85
2023/08/23 00:24:05;;;;;;;;;;;;;;;30.81;46.97;100812.31;6172415;23;19928;-83
2023/08/23 00:26:57;;;;;;;;;;;;;;;30.78;46.80;100804.78;6152792;23;19917;-85
2023/08/23 00:29:46;;;;;;;;;;;;;;;30.73;46.63;100805.38;6195188;23;19916;-84
2023/08/23 00:32:38;;;;;;;;;;;;;;;30.71;46.97;100802.22;6172662;23;19913;-85
2023/08/23 00:35:30;;;;;;;;;;;;;;;30.67;46.92;100802.34;6152387;23;19912;-84
2023/08/23 00:38:19;;;;;;;;;;;;;;;30.65;46.88;100798.38;6172823;23;19912;-84
2023/08/23 00:41:09;;;;;;;;;;;;;;;30.66;46.78;100797.94;6152069;23;20525;-85
2023/08/23 00:44:01;;;;;;;;;;;;;;;30.64;47.11;100796.81;6173314;23;20248;-84
2023/08/23 00:46:53;;;;;;;;;;;;;;;30.64;46.98;100796.81;6173094;23;19916;-84
2023/08/23 00:49:45;;;;;;;;;;;;;;;30.65;46.88;100784.34;6152173;23;19912;-84
2023/08/23 00:52:38;;;;;;;;;;;;;;;30.62;47.09;100783.25;6171997;23;19912;-85
2023/08/23 00:55:30;;;;;;;;;;;;;;;30.59;46.98;100787.72;6173179;23;19916;-85
2023/08/23 00:58:22;;;;;;;;;;;;;;;30.58;47.07;100785.38;6152040;23;19913;-85
2023/08/23 01:01:10;;;;;;;;;;;;;;;30.56;47.16;100783.03;6173038;23;19920;-85
2023/08/23 01:04:00;;;;;;;;;;;;;;;30.54;47.11;100785.50;6188423;23;19912;-85
2023/08/23 01:06:59;;;;;;;;;;;;;;;30.56;47.01;100780.22;6173215;23;19916;-85
2023/08/23 01:10:04;;;;;;;;;;;;;;;30.59;46.79;100773.69;6151916;23;19913;-84
2023/08/23 01:13:00;;;;;;;;;;;;;;;30.52;47.22;100779.56;6172725;23;19912;-84
2023/08/23 01:15:51;;;;;;;;;;;;;;;30.51;47.05;100786.41;6152338;23;20240;-84
2023/08/23 01:18:44;;;;;;;;;;;;;;;30.51;46.92;100777.97;6151851;23;19912;-84
2023/08/23 01:21:35;;;;;;;;;;;;;;;30.51;47.12;100788.41;6195025;23;20243;-84
2023/08/23 01:24:27;;;;;;;;;;;;;;;30.50;47.09;100784.81;6152334;23;19912;-84
2023/08/23 01:27:19;;;;;;;;;;;;;;;30.46;47.20;100786.97;6172804;23;19916;-85
2023/08/23 01:30:06;;;;;;;;;;;;;;;30.39;47.47;100781.53;6152067;23;20344;-84
2023/08/23 01:33:04;;;;;;;;;;;;;;;30.39;47.54;100778.72;6152955;23;19913;-85
2023/08/23 01:36:15;;;;;;;;;;;;;;;30.38;47.41;100779.97;6152400;23;19915;-85
2023/08/23 01:39:07;;;;;;;;;;;;;;;30.39;47.42;100780.75;6172599;23;19913;-84
2023/08/23 01:42:00;;;;;;;;;;;;;;;30.35;47.68;100788.50;6152312;23;19912;-85
2023/08/23 01:44:50;;;;;;;;;;;;;;;30.33;47.84;100785.34;6173303;23;19912;-85
2023/08/23 01:47:43;;;;;;;;;;;;;;;30.31;47.87;100782.22;6152540;23;19916;-84
2023/08/23 01:50:35;;;;;;;;;;;;;;;30.30;47.69;100778.63;6152075;23;19913;-85
2023/08/23 01:53:27;;;;;;;;;;;;;;;30.28;48.04;100777.50;6152600;23;20268;-84
2023/08/23 01:56:24;;;;;;;;;;;;;;;30.27;47.83;100776.72;6194680;23;19912;-84
2023/08/23 01:59:16;;;;;;;;;;;;;;;30.26;48.00;100779.97;6151796;23;19916;-84
2023/08/23 02:02:06;;;;;;;;;;;;;;;30.24;48.13;100782.44;6173507;23;19913;-84
2023/08/23 02:04:58;;;;;;;;;;;;;;;30.26;47.56;100774.38;6174998;23;20252;-85
2023/08/23 02:07:50;;;;;;;;;;;;;;;30.21;47.87;100777.72;6174335;23;19917;-84
2023/08/23 02:10:43;;;;;;;;;;;;;;;30.16;48.08;100770.66;6154031;23;19912;-84
2023/08/23 02:13:35;;;;;;;;;;;;;;;30.11;48.23;100768.41;6191866;23;19912;-84
2023/08/23 02:16:28;;;;;;;;;;;;;;;30.07;48.59;100771.31;6154095;23;19912;-85
2023/08/23 02:19:18;;;;;;;;;;;;;;;30.05;48.62;100764.59;6173596;23;19912;-84
2023/08/23 02:22:07;;;;;;;;;;;;;;;29.99;48.68;100767.16;6153614;23;19912;-84
2023/08/23 02:24:57;;;;;;;;;;;;;;;29.97;48.72;100768.84;6153618;23;19912;-85
2023/08/23 02:27:49;;;;;;;;;;;;;;;29.96;48.62;100756.84;6174326;23;19917;-84
2023/08/23 02:30:41;;;;;;;;;;;;;;;29.98;48.61;100764.81;6174387;23;19912;-85
2023/08/23 02:33:33;;;;;;;;;;;;;;;29.95;48.43;100757.28;6194916;23;19912;-85
2023/08/23 02:36:25;;;;;;;;;;;;;;;29.92;48.65;100755.41;6153514;23;19916;-84
2023/08/23 02:39:17;;;;;;;;;;;;;;;29.92;48.86;100761.00;6173633;23;19912;-85
2023/08/23 02:42:06;;;;;;;;;;;;;;;29.89;48.64;100757.06;6194973;23;19912;-84
2023/08/23 02:44:59;;;;;;;;;;;;;;;29.85;48.54;100761.16;6154153;23;19912;-84
2023/08/23 02:47:51;;;;;;;;;;;;;;;29.84;48.92;100759.59;6153250;23;19916;-85
2023/08/23 02:50:42;;;;;;;;;;;;;;;29.83;48.97;100764.41;6174102;23;19916;-85
2023/08/23 02:53:34;;;;;;;;;;;;;;;29.81;48.78;100761.28;6173982;23;20348;-84
2023/08/23 02:56:26;;;;;;;;;;;;;;;29.83;48.48;100760.81;6173919;23;19912;-85
2023/08/23 02:59:18;;;;;;;;;;;;;;;29.85;48.78;100761.16;6173670;23;19920;-84
2023/08/23 03:02:07;;;;;;;;;;;;;;;29.82;48.78;100756.47;6153065;23;19912;-85
2023/08/23 03:04:56;;;;;;;;;;;;;;;29.78;48.53;100750.94;6195179;23;20340;-85
2023/08/23 03:07:47;;;;;;;;;;;;;;;29.76;48.65;100754.19;6173313;23;19916;-84
2023/08/23 03:10:39;;;;;;;;;;;;;;;29.74;49.08;100748.25;6173879;23;20323;-84
2023/08/23 03:13:31;;;;;;;;;;;;;;;29.73;48.78;100748.69;6191760;23;19912;-85
2023/08/23 03:16:21;;;;;;;;;;;;;;;29.70;49.14;100749.59;6190951;23;19916;-85
2023/08/23 03:19:13;;;;;;;;;;;;;;;29.67;49.12;100754.06;6152820;23;19916;-84
2023/08/23 03:22:00;;;;;;;;;;;;;;;29.65;48.95;100753.75;6153204;23;19916;-85
2023/08/23 03:24:50;;;;;;;;;;;;;;;29.66;48.91;100752.47;6194934;23;20497;-84
2023/08/23 03:27:42;;;;;;;;;;;;;;;29.68;49.13;100755.63;6153303;23;19920;-85
2023/08/23 03:30:34;;;;;;;;;;;;;;;29.68;48.68;100757.66;6173425;23;19916;-85
2023/08/23 03:33:26;;;;;;;;;;;;;;;29.65;49.10;100756.53;6194321;23;20248;-84
2023/08/23 03:36:18;;;;;;;;;;;;;;;29.65;48.76;100750.94;6173317;23;19916;-85
2023/08/23 03:39:09;;;;;;;;;;;;;;;29.66;48.62;100755.28;6195172;23;20340;-84
2023/08/23 03:41:59;;;;;;;;;;;;;;;29.66;48.97;100748.91;6173290;23;20256;-84
2023/08/23 03:44:51;;;;;;;;;;;;;;;29.64;49.16;100751.38;6153454;23;19912;-84
2023/08/23 03:47:43;;;;;;;;;;;;;;;29.61;49.24;100750.22;6153033;23;20343;-84
2023/08/23 03:50:36;;;;;;;;;;;;;;;29.60;49.13;100743.06;6152814;23;19919;-85
2023/08/23 03:53:25;;;;;;;;;;;;;;;29.58;48.88;100736.31;6153198;23;19920;-84
2023/08/23 03:56:14;;;;;;;;;;;;;;;29.57;49.05;100737.56;6173881;23;19912;-85
2023/08/23 03:59:06;;;;;;;;;;;;;;;29.55;48.95;100740.03;6173193;23;19912;-84
2023/08/23 04:01:56;;;;;;;;;;;;;;;29.54;49.20;100742.03;6173628;23;19912;-84
2023/08/23 04:04:48;;;;;;;;;;;;;;;29.54;49.34;100736.44;6153197;23;19912;-84
2023/08/23 04:07:40;;;;;;;;;;;;;;;29.50;49.40;100734.97;6195483;23;19920;-85
2023/08/23 04:10:32;;;;;;;;;;;;;;;29.46;49.67;100734.28;6152915;23;20244;-84
2023/08/23 04:13:24;;;;;;;;;;;;;;;29.45;49.55;100741.91;6191293;23;19912;-85
2023/08/23 04:16:16;;;;;;;;;;;;;;;29.51;48.95;100731.72;6167487;23;19913;-83
2023/08/23 04:19:08;;;;;;;;;;;;;;;28.39;52.36;100739.06;6195933;23;19917;-82
2023/08/23 04:22:00;;;;;;;;;;;;;;;26.88;56.87;100730.59;6153871;23;20112;-82
2023/08/23 04:24:51;;;;;;;;;;;;;;;26.57;58.09;100737.50;6174452;23;19912;-81
2023/08/23 04:27:43;;;;;;;;;;;;;;;26.62;57.72;100731.44;6192225;23;19916;-81
2023/08/23 04:30:37;;;;;;;;;;;;;;;26.75;57.59;100727.63;6143354;23;20440;-81
2023/08/23 04:33:29;;;;;;;;;;;;;;;26.82;57.58;100735.06;6194142;23;19912;-79
2023/08/23 04:36:22;;;;;;;;;;;;;;;27.11;56.85;100740.97;6171378;23;20340;-77
2023/08/23 04:39:14;;;;;;;;;;;;;;;27.40;56.05;100739.19;6171652;23;20252;-77
2023/08/23 04:42:07;;;;;;;;;;;;;;;27.48;56.15;100743.41;6171857;23;19912;-82
2023/08/23 04:44:59;;;;;;;;;;;;;;;27.57;55.41;100742.88;6195495;23;19912;-83
2023/08/23 04:47:51;;;;;;;;;;;;;;;27.58;55.67;100739.63;6173417;23;19920;-82
2023/08/23 04:50:42;;;;;;;;;;;;;;;27.57;55.85;100754.06;6154841;23;19913;-88
2023/08/23 04:53:33;;;;;;;;;;;;;;;27.61;55.67;100754.75;6197659;23;19912;-87
2023/08/23 04:56:25;;;;;;;;;;;;;;;27.65;55.42;100752.69;6177512;23;20331;-88
2023/08/23 04:59:17;;;;;;;;;;;;;;;27.65;55.29;100750.69;6157130;23;20336;-89
2023/08/23 05:02:07;;;;;;;;;;;;;;;27.76;55.07;100756.03;6196985;23;19912;-89
2023/08/23 05:04:57;;;;;;;;;;;;;;;27.83;54.96;100747.50;6152269;23;19912;-86
2023/08/23 05:07:49;;;;;;;;;;;;;;;27.87;55.05;100747.44;6152984;23;19916;-90
2023/08/23 05:10:41;;;;;;;;;;;;;;;27.82;55.09;100751.53;6173598;23;19912;-90
2023/08/23 05:13:33;;;;;;;;;;;;;;;27.95;54.46;100757.22;6153829;23;19912;-90
2023/08/23 05:16:25;;;;;;;;;;;;;;;28.03;54.17;100756.66;6153211;23;20270;-89
2023/08/23 05:19:18;;;;;;;;;;;;;;;28.08;54.39;100758.94;6174083;23;19916;-90
2023/08/23 05:22:10;;;;;;;;;;;;;;;28.20;53.67;100760.28;6174568;23;19912;-89
2023/08/23 05:25:02;;;;;;;;;;;;;;;28.27;54.20;100759.34;6174158;23;19916;-90
2023/08/23 05:27:51;;;;;;;;;;;;;;;28.34;53.40;100770.38;6174142;23;19917;-90
2023/08/23 05:30:43;;;;;;;;;;;;;;;28.44;53.55;100772.13;6173929;23;19912;-88
2023/08/23 05:33:37;;;;;;;;;;;;;;;28.51;53.00;100771.94;6153079;23;20248;-87
2023/08/23 05:36:29;;;;;;;;;;;;;;;28.22;54.44;100771.03;6152557;23;19912;-88
2023/08/23 05:39:21;;;;;;;;;;;;;;;28.43;54.08;100768.53;6154414;23;19912;-88
2023/08/23 05:42:09;;;;;;;;;;;;;;;28.61;54.02;100776.47;6196049;23;19912;-88
2023/08/23 05:44:59;;;;;;;;;;;;;;;28.76;53.49;100772.13;6174726;23;19912;-88
2023/08/23 05:47:51;;;;;;;;;;;;;;;28.93;53.14;100778.53;6174604;23;19916;-89
2023/08/23 05:50:43;;;;;;;;;;;;;;;29.07;53.19;100782.94;6174982;23;19912;-88
2023/08/23 05:53:35;;;;;;;;;;;;;;;29.05;53.30;100774.22;6154529;23;19916;-85
2023/08/23 05:56:24;;;;;;;;;;;;;;;29.06;52.61;100773.75;6174354;23;19912;-88
2023/08/23 05:59:13;;;;;;;;;;;;;;;29.14;52.63;100779.97;6174761;23;19912;-87
2023/08/23 06:02:02;;;;;;;;;;;;;;;29.46;52.63;100779.91;6154649;23;20383;-88
2023/08/23 06:04:52;;;;;;;;;;;;;;;29.86;50.94;100776.78;6174883;23;19912;-87
2023/08/23 06:07:44;;;;;;;;;;;;;;;30.13;50.18;100777.16;6196972;23;19916;-86
2023/08/23 06:10:35;;;;;;;;;;;;;;;30.42;49.49;100780.66;6174652;23;19916;-86
2023/08/23 06:13:27;;;;;;;;;;;;;;;30.70;48.19;100775.34;6192431;23;19912;-87
2023/08/23 06:16:19;;;;;;;;;;;;;;;31.11;47.52;100783.59;6174216;23;19913;-86
2023/08/23 06:19:11;;;;;;;;;;;;;;;31.48;46.56;100781.09;6174923;23;19912;-87
2023/08/23 06:22:01;;;;;;;;;;;;;;;32.20;45.07;100778.00;6195427;23;20247;-87
2023/08/23 06:24:52;;;;;;;;;;;;;;;33.24;42.90;100789.38;6152736;23;19912;-88
2023/08/23 06:27:44;;;;;;;;;;;;;;;34.08;40.81;100786.78;6175117;23;19920;-87
2023/08/23 06:30:37;;;;;;;;;;;;;;;35.03;38.59;100786.94;6159577;23;19916;-86
2023/08/23 06:33:29;;;;;;;;;;;;;;;35.80;36.92;100787.69;6155379;23;19916;-85
2023/08/23 06:36:18;;;;;;;;;;;;;;;36.58;35.31;100793.81;6175298;23;20582;-84
2023/08/23 06:39:10;;;;;;;;;;;;;;;33.15;42.27;100784.50;6152962;23;19912;-83
2023/08/23 06:42:02;;;;;;;;;;;;;;;31.55;46.09;100773.16;6174169;23;19913;-83
2023/08/23 06:44:54;;;;;;;;;;;;;;;30.94;47.93;100779.34;6150808;23;19916;-83
2023/08/23 06:47:44;;;;;;;;;;;;;;;30.55;48.85;100778.66;6173005;23;19916;-82
2023/08/23 06:50:33;;;;;;;;;;;;;;;30.38;49.28;100785.56;6152507;23;19912;-82
2023/08/23 06:53:25;;;;;;;;;;;;;;;30.24;49.71;100779.63;6173017;23;19916;-82
2023/08/23 06:56:15;;;;;;;;;;;;;;;30.18;49.85;100785.00;6173149;23;19912;-82
2023/08/23 06:59:04;;;;;;;;;;;;;;;30.14;50.07;100789.94;6172515;23;19916;-82
2023/08/23 07:01:56;;;;;;;;;;;;;;;30.03;49.99;100784.66;6194988;23;19912;-83
2023/08/23 07:04:43;;;;;;;;;;;;;;;30.04;50.20;100788.25;6163649;23;19912;-81
2023/08/23 07:07:35;;;;;;;;;;;;;;;29.97;50.63;100780.84;6172821;23;20360;-83
2023/08/23 07:10:27;;;;;;;;;;;;;;;29.93;50.63;100790.59;6152503;23;20247;-83
2023/08/23 07:13:19;;;;;;;;;;;;;;;29.96;50.49;100790.50;6191193;23;19912;-84
2023/08/23 07:16:11;;;;;;;;;;;;;;;30.03;50.72;100795.09;6169001;23;19912;-83
2023/08/23 07:19:03;;;;;;;;;;;;;;;30.03;50.69;100795.09;6193500;23;19913;-83
2023/08/23 07:21:53;;;;;;;;;;;;;;;29.97;50.96;100794.88;6152300;23;19915;-84
2023/08/23 07:24:45;;;;;;;;;;;;;;;30.00;51.04;100796.00;6163800;23;19916;-85
2023/08/23 07:27:37;;;;;;;;;;;;;;;30.00;50.90;100805.22;6152301;23;20252;-84
2023/08/23 07:30:29;;;;;;;;;;;;;;;30.07;50.93;100798.59;6172535;23;19913;-84
2023/08/23 07:33:21;;;;;;;;;;;;;;;30.01;50.98;100801.19;6169262;23;19931;-84
2023/08/23 07:36:11;;;;;;;;;;;;;;;29.98;51.00;100799.25;6172642;23;19912;-86
2023/08/23 07:39:02;;;;;;;;;;;;;;;30.06;50.80;100800.63;6193480;23;19912;-85
2023/08/23 07:41:55;;;;;;;;;;;;;;;30.11;50.71;100805.69;6194789;23;19912;-83
2023/08/23 07:44:47;;;;;;;;;;;;;;;30.08;50.46;100800.94;6173187;23;19912;-83
2023/08/23 07:47:38;;;;;;;;;;;;;;;30.06;50.71;100805.44;6172836;23;19912;-82
2023/08/23 07:50:31;;;;;;;;;;;;;;;29.98;50.96;100804.06;6194951;23;19920;-81
2023/08/23 07:53:23;;;;;;;;;;;;;;;30.04;50.88;100805.09;6169331;23;20332;-82
2023/08/23 07:56:15;;;;;;;;;;;;;;;30.08;50.59;100814.19;6152469;23;19912;-83
2023/08/23 07:59:04;;;;;;;;;;;;;;;30.10;50.47;100808.91;6171572;23;19912;-83
2023/08/23 08:01:54;;;;;;;;;;;;;;;30.09;50.68;100810.94;6172830;23;19916;-83
2023/08/23 08:04:46;;;;;;;;;;;;;;;30.16;51.15;100807.94;6186080;23;19920;-84
2023/08/23 08:07:35;;;;;;;;;;;;;;;30.19;50.76;100806.22;6173016;23;19912;-85
2023/08/23 08:10:27;;;;;;;;;;;;;;;30.25;50.62;100801.63;6173556;23;19916;-83
2023/08/23 08:13:19;;;;;;;;;;;;;;;30.17;51.03;100811.53;6172188;23;20336;-83
2023/08/23 08:16:11;;;;;;;;;;;;;;;30.33;49.86;100805.00;6172166;23;19912;-82
2023/08/23 08:19:03;;;;;;;;;;;;;;;30.25;50.34;100810.06;6172024;23;19912;-80
2023/08/23 08:21:55;;;;;;;;;;;;;;;30.31;50.20;100805.47;6151730;23;19912;-80
2023/08/23 08:24:46;;;;;;;;;;;;;;;30.33;50.22;100797.38;6163080;23;19912;-82
2023/08/23 08:27:38;;;;;;;;;;;;;;;30.39;49.36;100804.00;6172478;23;19912;-82
2023/08/23 08:30:28;;;;;;;;;;;;;;;30.35;50.05;100803.31;6151236;23;19912;-81
2023/08/23 08:33:20;;;;;;;;;;;;;;;30.48;49.29;100803.34;6172174;23;19912;-82
2023/08/23 08:36:11;;;;;;;;;;;;;;;30.43;49.31;100801.06;6172231;23;19913;-82
2023/08/23 08:39:03;;;;;;;;;;;;;;;30.43;49.50;100798.25;6172350;23;20339;-82
2023/08/23 08:41:55;;;;;;;;;;;;;;;30.52;49.13;100798.41;6151424;23;19916;-82
2023/08/23 08:44:47;;;;;;;;;;;;;;;30.74;48.30;100807.69;6165198;23;19916;-83
2023/08/23 08:47:39;;;;;;;;;;;;;;;30.63;48.88;100800.88;6174365;23;19912;-83
2023/08/23 08:50:32;;;;;;;;;;;;;;;30.66;48.85;100800.75;6174022;23;19912;-84
2023/08/23 08:53:22;;;;;;;;;;;;;;;30.61;48.92;100797.72;6152734;23;19912;-83
2023/08/23 08:56:12;;;;;;;;;;;;;;;30.45;49.18;100799.41;6173176;23;19912;-82
2023/08/23 08:59:03;;;;;;;;;;;;;;;30.59;49.05;100792.56;6172985;23;19915;-83
2023/08/23 09:01:56;;;;;;;;;;;;;;;30.55;49.04;100792.69;6172519;23;19916;-83
2023/08/23 09:04:48;;;;;;;;;;;;;;;30.67;48.86;100790.31;6163404;23;19916;-83
2023/08/23 09:07:40;;;;;;;;;;;;;;;30.63;48.89;100784.03;6151950;23;19912;-83
2023/08/23 09:10:32;;;;;;;;;;;;;;;30.78;48.86;100790.75;6175655;23;19912;-87
2023/08/23 09:13:22;;;;;;;;;;;;;;;31.00;48.24;100791.59;6178497;23;19913;-87
2023/08/23 09:16:14;;;;;;;;;;;;;;;31.15;47.71;100786.28;6199547;23;20348;-87
2023/08/23 09:19:04;;;;;;;;;;;;;;;31.28;47.35;100787.81;6178430;23;20436;-89
2023/08/23 09:21:53;;;;;;;;;;;;;;;31.39;47.23;100790.25;6177310;23;19916;-90
2023/08/23 09:24:45;;;;;;;;;;;;;;;31.45;46.73;100785.59;6159831;23;19916;-89
2023/08/23 09:27:39;;;;;;;;;;;;;;;31.50;46.78;100782.19;6158968;23;19913;-88
2023/08/23 09:30:31;;;;;;;;;;;;;;;31.63;46.31;100782.16;6177578;23;19916;-87
2023/08/23 09:33:23;;;;;;;;;;;;;;;31.66;46.34;100789.69;6156845;23;20248;-88
2023/08/23 09:36:24;;;;;;;;;;;;;;;31.72;46.32;100773.78;6195826;23;19916;-87
2023/08/23 09:39:16;;;;;;;;;;;;;;;31.83;46.23;100782.59;6194539;23;19912;-86
2023/08/23 09:42:08;;;;;;;;;;;;;;;31.88;45.62;100782.00;6176841;23;19912;-89
2023/08/23 09:45:02;;;;;;;;;;;;;;;31.91;45.94;100781.09;6197426;23;19912;-88
2023/08/23 09:48:01;;;;;;;;;;;;;;;31.93;45.70;100783.44;6155978;23;19912;-89
2023/08/23 09:50:56;;;;;;;;;;;;;;;31.96;45.47;100790.94;6175340;23;19931;-86
2023/08/23 09:53:52;;;;;;;;;;;;;;;32.05;45.59;100782.59;6175356;23;19912;-87
2023/08/23 09:56:44;;;;;;;;;;;;;;;32.14;45.17;100769.38;6155367;23;19912;-87
2023/08/23 09:59:36;;;;;;;;;;;;;;;32.26;44.65;100773.31;6154856;23;19912;-86
2023/08/23 10:02:27;;;;;;;;;;;;;;;32.28;45.06;100773.63;6174516;23;19913;-84
2023/08/23 10:05:16;;;;;;;;;;;;;;;32.32;44.32;100765.81;6154500;23;19912;-88
2023/08/23 10:08:10;;;;;;;;;;;;;;;32.47;43.95;100760.38;6154661;23;19916;-87
2023/08/23 10:11:02;;;;;;;;;;;;;;;32.59;43.47;100765.13;6155916;23;19912;-88
2023/08/23 10:13:52;;;;;;;;;;;;;;;32.63;43.66;100758.09;6157367;23;19912;-88
2023/08/23 10:16:43;;;;;;;;;;;;;;;32.61;44.07;100757.00;6158204;23;19928;-90
2023/08/23 10:19:34;;;;;;;;;;;;;;;32.61;44.17;100754.19;6183163;23;19912;-90
2023/08/23 10:22:25;;;;;;;;;;;;;;;32.65;43.59;100752.03;6160467;23;19916;-88
2023/08/23 10:25:18;;;;;;;;;;;;;;;32.70;44.05;100740.16;6199870;23;19912;-90
2023/08/23 10:28:11;;;;;;;;;;;;;;;32.69;44.19;100735.75;6176917;23;19916;-91
2023/08/23 10:31:03;;;;;;;;;;;;;;;32.74;44.18;100734.34;6155774;23;20243;-88
2023/08/23 10:34:02;;;;;;;;;;;;;;;32.84;43.35;100736.72;6155290;23;19916;-87
2023/08/23 10:36:52;;;;;;;;;;;;;;;32.86;43.83;100737.03;6176428;23;19913;-89
2023/08/23 10:39:52;;;;;;;;;;;;;;;32.90;43.64;100734.84;6154389;23;20574;-88
2023/08/23 10:42:44;;;;;;;;;;;;;;;32.91;43.23;100732.81;6172959;23;19912;-88
2023/08/23 10:45:49;;;;;;;;;;;;;;;32.96;43.29;100735.00;6174139;23;19920;-87
2023/08/23 10:48:39;;;;;;;;;;;;;;;33.05;43.61;100729.38;6153574;23;19920;-86
2023/08/23 10:51:32;;;;;;;;;;;;;;;33.15;42.65;100728.13;6174118;23;19912;-87
2023/08/23 10:54:25;;;;;;;;;;;;;;;33.21;42.56;100720.63;6153746;23;19912;-89
2023/08/23 10:57:18;;;;;;;;;;;;;;;33.24;42.53;100727.34;6175320;23;19912;-87
2023/08/23 11:00:07;;;;;;;;;;;;;;;33.21;42.52;100719.84;6175179;23;19912;-88
2023/08/23 11:02:57;;;;;;;;;;;;;;;33.34;42.46;100724.06;6197443;23;19912;-87
2023/08/23 11:05:49;;;;;;;;;;;;;;;33.36;41.98;100726.41;6155683;23;19912;-88
2023/08/23 11:08:39;;;;;;;;;;;;;;;33.45;41.10;100706.66;6199083;23;19916;-91
2023/08/23 11:11:34;;;;;;;;;;;;;;;33.53;40.76;100717.13;6198454;23;19913;-88
2023/08/23 11:14:22;;;;;;;;;;;;;;;33.57;41.71;100719.00;6184970;23;19916;-84
2023/08/23 11:17:08;;;;;;;;;;;;;;;33.53;41.84;100714.28;6170105;23;19916;-89
2023/08/23 11:19:58;;;;;;;;;;;;;;;33.51;41.52;100711.19;6170719;23;19912;-86
2023/08/23 11:22:48;;;;;;;;;;;;;;;33.52;41.53;100709.16;6173213;23;19920;-88
2023/08/23 11:25:35;;;;;;;;;;;;;;;33.53;41.34;100707.88;6152719;23;19912;-88
2023/08/23 11:28:25;;;;;;;;;;;;;;;33.67;41.00;100712.88;6153224;23;19916;-88
2023/08/23 11:31:17;;;;;;;;;;;;;;;33.72;39.93;100708.66;6153474;23;19916;-87
2023/08/23 11:34:07;;;;;;;;;;;;;;;33.85;39.30;100707.19;6153267;23;20263;-87
2023/08/23 11:36:52;;;;;;;;;;;;;;;33.91;38.37;100710.94;6152407;23;19912;-88
2023/08/23 11:39:44;;;;;;;;;;;;;;;34.02;39.21;100696.31;6172718;23;19912;-85
2023/08/23 11:42:36;;;;;;;;;;;;;;;34.15;37.38;100704.53;6153322;23;19916;-88
2023/08/23 11:45:28;;;;;;;;;;;;;;;34.25;37.85;100701.22;6173576;23;19916;-86
2023/08/23 11:48:18;;;;;;;;;;;;;;;34.26;38.37;100690.72;6152990;23;19912;-88
2023/08/23 11:51:10;;;;;;;;;;;;;;;34.18;39.51;100698.75;6174231;23;19912;-87
2023/08/23 11:54:00;;;;;;;;;;;;;;;34.14;39.06;100688.84;6171409;23;19912;-86
2023/08/23 11:56:52;;;;;;;;;;;;;;;34.14;39.50;100694.50;6172956;23;19912;-84
2023/08/23 11:59:43;;;;;;;;;;;;;;;34.38;38.07;100691.75;6173950;23;19912;-85
2023/08/23 12:02:35;;;;;;;;;;;;;;;34.48;38.48;100687.59;6152672;23;19912;-87
2023/08/23 12:05:27;;;;;;;;;;;;;;;34.51;38.27;100690.22;6173211;23;20336;-85
2023/08/23 12:08:16;;;;;;;;;;;;;;;34.58;38.36;100681.41;6152280;23;19916;-87
2023/08/23 12:11:08;;;;;;;;;;;;;;;34.60;38.64;100675.25;6195357;23;20259;-88
2023/08/23 12:14:00;;;;;;;;;;;;;;;34.72;38.55;100677.09;6153529;23;19912;-90
2023/08/23 12:16:52;;;;;;;;;;;;;;;34.82;38.51;100680.63;6167719;23;20342;-89
2023/08/23 12:19:44;;;;;;;;;;;;;;;34.74;38.73;100669.69;6173375;23;19912;-89
2023/08/23 12:22:36;;;;;;;;;;;;;;;34.86;38.12;100676.34;6152890;23;19916;-89
2023/08/23 12:25:28;;;;;;;;;;;;;;;34.79;38.35;100670.28;6152401;23;19912;-84
2023/08/23 12:28:20;;;;;;;;;;;;;;;34.93;38.16;100672.38;6172250;23;20331;-85
2023/08/23 12:31:09;;;;;;;;;;;;;;;35.00;37.65;100669.94;6174668;23;19912;-89
2023/08/23 12:34:01;;;;;;;;;;;;;;;35.14;37.11;100657.09;6173317;23;19912;-90
2023/08/23 12:36:52;;;;;;;;;;;;;;;35.33;36.99;100652.81;6158543;23;19912;-90
2023/08/23 12:39:44;;;;;;;;;;;;;;;35.38;36.65;100642.88;6153955;23;20347;-88
2023/08/23 12:42:33;;;;;;;;;;;;;;;35.65;35.77;100638.94;6154912;23;19916;-91
2023/08/23 12:45:25;;;;;;;;;;;;;;;35.61;36.73;100633.47;6155804;23;19912;-90
2023/08/23 12:48:14;;;;;;;;;;;;;;;35.68;36.19;100629.50;6150414;23;19935;-89
2023/08/23 12:51:04;;;;;;;;;;;;;;;35.69;36.21;100634.66;6172044;23;19912;-83
2023/08/23 12:53:56;;;;;;;;;;;;;;;35.74;36.07;100624.72;6171882;23;19916;-86
2023/08/23 12:56:48;;;;;;;;;;;;;;;35.76;35.79;100625.00;6194085;23;19912;-86
2023/08/23 12:59:40;;;;;;;;;;;;;;;35.79;36.42;100626.84;6172566;23;20251;-86
2023/08/23 13:02:25;;;;;;;;;;;;;;;35.80;36.10;100622.75;6193637;23;19916;-86
2023/08/23 13:05:17;;;;;;;;;;;;;;;35.77;36.31;100620.88;6192723;23;19912;-86
2023/08/23 13:08:09;;;;;;;;;;;;;;;35.88;35.89;100618.22;6171185;23;19912;-86
2023/08/23 13:10:56;;;;;;;;;;;;;;;35.78;36.78;100614.75;6171970;23;20344;-85
2023/08/23 13:13:49;;;;;;;;;;;;;;;35.80;36.57;100606.53;6171746;23;19912;-85
2023/08/23 13:16:41;;;;;;;;;;;;;;;35.82;36.52;100611.69;6192791;23;19912;-86
2023/08/23 13:19:30;;;;;;;;;;;;;;;35.87;35.59;100611.78;6151536;23;19912;-85
2023/08/23 13:22:22;;;;;;;;;;;;;;;35.97;35.29;100603.94;6151367;23;19912;-86
2023/08/23 13:25:14;;;;;;;;;;;;;;;35.94;35.71;100604.94;6172564;23;19913;-87
2023/08/23 13:28:06;;;;;;;;;;;;;;;35.88;35.91;100602.03;6151221;23;20260;-86
2023/08/23 13:30:56;;;;;;;;;;;;;;;35.98;35.39;100606.28;6151709;23;19916;-87
2023/08/23 13:33:48;;;;;;;;;;;;;;;35.98;35.51;100594.16;6171955;23;19916;-85
2023/08/23 13:36:38;;;;;;;;;;;;;;;36.03;35.21;100587.81;6172351;23;19916;-84
2023/08/23 13:39:30;;;;;;;;;;;;;;;36.00;35.57;100588.81;6171837;23;19913;-84
2023/08/23 13:42:19;;;;;;;;;;;;;;;36.15;34.78;100588.75;6191792;23;19912;-84
2023/08/23 13:45:07;;;;;;;;;;;;;;;36.12;34.99;100582.00;6170929;23;19913;-85
2023/08/23 13:47:54;;;;;;;;;;;;;;;36.11;34.96;100588.97;6151621;23;19912;-85
2023/08/23 13:50:44;;;;;;;;;;;;;;;36.12;35.18;100586.88;6172306;23;19916;-86
2023/08/23 13:53:35;;;;;;;;;;;;;;;36.15;34.82;100588.75;6151675;23;19912;-80
2023/08/23 13:56:27;;;;;;;;;;;;;;;36.12;35.34;100590.50;6172732;23;19912;-83
2023/08/23 13:59:17;;;;;;;;;;;;;;;36.03;35.57;100587.81;6152546;23;20251;-85
2023/08/23 14:02:09;;;;;;;;;;;;;;;36.07;34.81;100585.53;6173497;23;19912;-85
2023/08/23 14:04:59;;;;;;;;;;;;;;;36.16;34.53;100579.78;6152925;23;20340;-86
2023/08/23 14:07:51;;;;;;;;;;;;;;;36.19;34.56;100578.78;6152385;23;19913;-82
2023/08/23 14:10:43;;;;;;;;;;;;;;;36.25;33.93;100582.47;6152911;23;19916;-85
2023/08/23 14:13:35;;;;;;;;;;;;;;;36.25;34.38;100585.31;6169622;23;19912;-84
2023/08/23 14:16:27;;;;;;;;;;;;;;;36.21;34.29;100572.63;6168538;23;19920;-85
2023/08/23 14:19:19;;;;;;;;;;;;;;;36.19;34.33;100578.78;6172535;23;19913;-84
2023/08/23 14:22:11;;;;;;;;;;;;;;;36.19;34.16;100580.84;6194930;23;20323;-84
2023/08/23 14:25:02;;;;;;;;;;;;;;;36.20;33.76;100579.56;6151865;23;19916;-84
2023/08/23 14:27:54;;;;;;;;;;;;;;;36.19;33.79;100586.50;6149889;23;19912;-83
2023/08/23 14:30:46;;;;;;;;;;;;;;;36.22;33.53;100583.44;6172954;23;19920;-84
2023/08/23 14:33:36;;;;;;;;;;;;;;;36.23;34.11;100581.38;6174373;23;19912;-90
2023/08/23 14:36:25;;;;;;;;;;;;;;;36.15;33.97;100586.72;6174096;23;19912;-89
2023/08/23 14:39:17;;;;;;;;;;;;;;;36.14;34.34;100584.38;6153961;23;19916;-89